createdAt,value
2018-03-18T00:00:47.682Z,26.50
2018-03-18T00:01:47.676Z,24.60
2018-03-18T00:02:47.676Z,25.10
2018-03-18T00:03:47.671Z,24.00
2018-03-18T00:04:47.659Z,23.60
2018-03-18T00:05:47.654Z,24.00
2018-03-18T00:06:47.656Z,21.70
2018-03-18T00:07:47.645Z,24.60
2018-03-18T00:08:47.640Z,22.80
2018-03-18T00:09:47.639Z,21.20
2018-03-18T00:10:47.638Z,21.10
2018-03-18T00:11:47.628Z,20.70
2018-03-18T00:12:47.626Z,20.40
2018-03-18T00:13:47.615Z,20.80
2018-03-18T00:14:47.617Z,20.80
2018-03-18T00:15:47.621Z,20.60
2018-03-18T00:16:47.607Z,20.80
2018-03-18T00:17:47.604Z,20.50
2018-03-18T00:18:47.597Z,20.80
2018-03-18T00:19:47.591Z,19.70
2018-03-18T00:20:47.589Z,20.50
2018-03-18T00:21:47.580Z,20.20
2018-03-18T00:22:47.575Z,21.40
2018-03-18T00:23:47.570Z,21.10
2018-03-18T00:24:47.565Z,20.10
2018-03-18T00:25:47.560Z,21.50
2018-03-18T00:26:47.555Z,20.50
2018-03-18T00:27:47.550Z,22.90
2018-03-18T00:28:47.544Z,22.90
2018-03-18T00:29:47.540Z,22.20
2018-03-18T00:30:47.530Z,22.30
2018-03-18T00:31:47.530Z,21.60
2018-03-18T00:32:47.521Z,21.20
2018-03-18T00:33:47.516Z,21.80
2018-03-18T00:34:47.515Z,22.40
2018-03-18T00:35:47.510Z,21.80
2018-03-18T00:36:47.501Z,20.00
2018-03-18T00:37:47.500Z,20.30
2018-03-18T00:38:47.496Z,19.40
2018-03-18T00:39:47.492Z,20.90
2018-03-18T00:40:47.483Z,21.00
2018-03-18T00:41:47.481Z,21.90
2018-03-18T00:42:47.476Z,20.40
2018-03-18T00:43:47.471Z,19.30
2018-03-18T00:44:47.465Z,20.40
2018-03-18T00:45:47.457Z,20.10
2018-03-18T00:46:47.456Z,21.60
2018-03-18T00:47:47.451Z,21.10
2018-03-18T00:48:47.446Z,20.60
2018-03-18T00:49:47.437Z,19.00
2018-03-18T00:50:47.437Z,18.70
2018-03-18T00:51:47.433Z,18.90
2018-03-18T00:52:47.423Z,18.60
2018-03-18T00:53:47.422Z,18.30
2018-03-18T00:54:47.422Z,18.50
2018-03-18T00:55:47.413Z,17.30
2018-03-18T00:56:47.407Z,18.70
2018-03-18T00:57:47.398Z,19.00
2018-03-18T00:58:47.399Z,19.10
2018-03-18T00:59:47.393Z,18.60
2018-03-18T01:00:47.390Z,19.10
2018-03-18T01:01:47.385Z,18.30
2018-03-18T01:02:47.379Z,18.70
2018-03-18T01:03:47.370Z,19.00
2018-03-18T01:04:47.364Z,19.60
2018-03-18T01:05:47.366Z,19.50
2018-03-18T01:06:47.357Z,19.40
2018-03-18T01:07:47.352Z,18.90
2018-03-18T01:08:47.344Z,19.50
2018-03-18T01:09:47.344Z,20.00
2018-03-18T01:10:47.338Z,20.60
2018-03-18T01:11:47.332Z,19.70
2018-03-18T01:12:47.334Z,19.80
2018-03-18T01:13:47.327Z,19.70
2018-03-18T01:14:47.320Z,19.60
2018-03-18T01:15:47.313Z,19.50
2018-03-18T01:16:47.313Z,19.50
2018-03-18T01:17:47.301Z,19.30
2018-03-18T01:18:47.297Z,20.10
2018-03-18T01:19:47.294Z,20.20
2018-03-18T01:20:47.293Z,19.70
2018-03-18T01:21:47.285Z,20.90
2018-03-18T01:22:47.277Z,20.50
2018-03-18T01:23:47.276Z,19.90
2018-03-18T01:24:47.267Z,21.30
2018-03-18T01:25:47.264Z,20.00
2018-03-18T01:26:47.264Z,20.70
2018-03-18T01:27:47.253Z,20.20
2018-03-18T01:28:47.250Z,21.10
2018-03-18T01:29:47.249Z,20.10
2018-03-18T01:30:47.238Z,19.70
2018-03-18T01:31:47.239Z,21.40
2018-03-18T01:32:47.240Z,20.40
2018-03-18T01:33:47.225Z,20.60
2018-03-18T01:34:47.221Z,19.60
2018-03-18T01:35:47.220Z,20.30
2018-03-18T01:36:47.193Z,19.70
2018-03-18T01:37:47.188Z,19.90
2018-03-18T01:38:47.201Z,18.20
2018-03-18T01:39:47.197Z,17.60
2018-03-18T01:40:47.190Z,16.80
2018-03-18T01:41:47.194Z,18.30
2018-03-18T01:42:47.164Z,15.80
2018-03-18T01:43:47.181Z,14.60
2018-03-18T01:44:47.177Z,11.80
2018-03-18T01:45:47.148Z,13.30
2018-03-18T01:46:47.144Z,13.20
2018-03-18T01:47:47.138Z,12.30
2018-03-18T01:48:47.152Z,12.10
2018-03-18T01:49:47.147Z,34.50
2018-03-18T01:50:47.123Z,11.30
2018-03-18T01:51:47.124Z,11.60
2018-03-18T01:52:47.130Z,12.00
2018-03-18T01:53:47.108Z,11.60
2018-03-18T01:54:47.121Z,9.80
2018-03-18T01:55:47.102Z,11.10
2018-03-18T01:56:47.114Z,10.30
2018-03-18T01:57:47.110Z,9.70
2018-03-18T01:58:47.105Z,9.20
2018-03-18T01:59:47.096Z,9.90
2018-03-18T02:00:47.091Z,9.00
2018-03-18T02:01:47.074Z,8.10
2018-03-18T02:02:47.064Z,8.40
2018-03-18T02:03:47.076Z,8.00
2018-03-18T02:04:47.072Z,7.50
2018-03-18T02:05:47.048Z,6.60
2018-03-18T02:06:47.044Z,7.30
2018-03-18T02:07:47.039Z,7.50
2018-03-18T02:08:47.053Z,7.90
2018-03-18T02:09:47.028Z,7.60
2018-03-18T02:10:47.041Z,8.10
2018-03-18T02:11:47.041Z,7.70
2018-03-18T02:12:47.031Z,7.00
2018-03-18T02:13:47.008Z,9.00
2018-03-18T02:14:47.021Z,7.70
2018-03-18T02:15:47.001Z,8.00
2018-03-18T02:16:47.021Z,8.30
2018-03-18T02:17:47.012Z,7.80
2018-03-18T02:18:46.984Z,8.00
2018-03-18T02:19:46.985Z,7.80
2018-03-18T02:20:46.991Z,8.40
2018-03-18T02:21:46.986Z,8.10
2018-03-18T02:22:46.982Z,8.30
2018-03-18T02:23:46.963Z,7.80
2018-03-18T02:24:46.970Z,7.50
2018-03-18T02:25:46.969Z,7.60
2018-03-18T02:26:46.945Z,7.60
2018-03-18T02:27:46.943Z,7.50
2018-03-18T02:28:46.936Z,8.50
2018-03-18T02:29:46.932Z,8.20
2018-03-18T02:30:46.924Z,8.70
2018-03-18T02:31:46.937Z,8.70
2018-03-18T02:32:46.916Z,7.90
2018-03-18T02:33:46.909Z,7.40
2018-03-18T02:34:46.922Z,8.50
2018-03-18T02:35:46.923Z,9.80
2018-03-18T02:36:46.911Z,8.60
2018-03-18T02:37:46.904Z,7.90
2018-03-18T02:38:46.899Z,8.20
2018-03-18T02:39:46.895Z,8.50
2018-03-18T02:40:46.896Z,9.10
2018-03-18T02:41:46.883Z,9.50
2018-03-18T02:42:46.885Z,11.00
2018-03-18T02:43:46.876Z,7.70
2018-03-18T02:44:46.872Z,9.90
2018-03-18T02:45:46.865Z,10.30
2018-03-18T02:46:46.858Z,10.20
2018-03-18T02:47:46.856Z,9.50
2018-03-18T02:48:46.849Z,9.60
2018-03-18T02:49:46.843Z,10.00
2018-03-18T02:50:46.841Z,10.20
2018-03-18T02:51:46.833Z,11.10
2018-03-18T02:52:46.829Z,10.40
2018-03-18T02:53:46.826Z,10.40
2018-03-18T02:54:46.819Z,10.70
2018-03-18T02:55:46.818Z,10.20
2018-03-18T02:56:46.810Z,11.30
2018-03-18T02:57:46.803Z,10.70
2018-03-18T02:58:46.800Z,11.70
2018-03-18T02:59:46.797Z,12.70
2018-03-18T03:00:46.794Z,13.70
2018-03-18T03:01:46.785Z,12.60
2018-03-18T03:02:46.778Z,12.30
2018-03-18T03:03:46.777Z,12.90
2018-03-18T03:04:46.767Z,13.00
2018-03-18T03:05:46.764Z,12.60
2018-03-18T03:06:46.760Z,12.50
2018-03-18T03:07:46.764Z,13.40
2018-03-18T03:08:46.795Z,13.10
2018-03-18T03:09:46.744Z,13.10
2018-03-18T03:10:46.741Z,14.00
2018-03-18T03:11:46.736Z,15.70
2018-03-18T03:12:46.725Z,15.70
2018-03-18T03:13:46.723Z,16.60
2018-03-18T03:14:46.717Z,16.70
2018-03-18T03:15:46.711Z,20.10
2018-03-18T03:16:46.705Z,19.00
2018-03-18T03:17:46.704Z,17.70
2018-03-18T03:18:46.694Z,18.10
2018-03-18T03:19:46.689Z,18.00
2018-03-18T03:20:46.682Z,18.80
2018-03-18T03:21:46.676Z,19.70
2018-03-18T03:22:46.679Z,20.90
2018-03-18T03:23:46.666Z,19.40
2018-03-18T03:24:46.667Z,19.80
2018-03-18T03:25:46.663Z,19.30
2018-03-18T03:26:46.655Z,18.80
2018-03-18T03:27:46.650Z,17.30
2018-03-18T03:28:46.646Z,19.80
2018-03-18T03:29:46.636Z,19.40
2018-03-18T03:30:46.635Z,20.10
2018-03-18T03:31:46.628Z,19.10
2018-03-18T03:32:46.623Z,19.20
2018-03-18T03:33:46.613Z,18.50
2018-03-18T03:34:46.608Z,18.70
2018-03-18T03:35:46.603Z,19.00
2018-03-18T03:36:46.601Z,22.10
2018-03-18T03:37:46.599Z,20.40
2018-03-18T03:38:46.591Z,18.50
2018-03-18T03:39:46.689Z,18.90
2018-03-18T03:40:46.580Z,18.40
2018-03-18T03:41:46.575Z,21.00
2018-03-18T03:42:46.572Z,18.30
2018-03-18T03:43:46.546Z,19.50
2018-03-18T03:44:46.540Z,20.80
2018-03-18T03:45:46.536Z,21.10
2018-03-18T03:46:46.533Z,20.60
2018-03-18T03:47:46.529Z,21.60
2018-03-18T03:48:46.519Z,21.50
2018-03-18T03:49:46.536Z,21.20
2018-03-18T03:50:46.512Z,21.10
2018-03-18T03:51:46.527Z,19.80
2018-03-18T03:52:46.499Z,23.40
2018-03-18T03:53:46.512Z,19.70
2018-03-18T03:54:46.488Z,18.70
2018-03-18T03:55:46.483Z,18.60
2018-03-18T03:56:46.491Z,19.00
2018-03-18T03:57:46.487Z,23.10
2018-03-18T03:58:46.482Z,19.60
2018-03-18T03:59:46.464Z,18.80
2018-03-18T04:00:46.470Z,18.80
2018-03-18T04:01:46.450Z,18.50
2018-03-18T04:02:46.446Z,21.10
2018-03-18T04:03:46.460Z,21.60
2018-03-18T04:04:46.446Z,19.70
2018-03-18T04:05:46.448Z,20.20
2018-03-18T04:06:46.443Z,19.90
2018-03-18T04:07:46.436Z,20.40
2018-03-18T04:08:46.413Z,20.70
2018-03-18T04:09:46.407Z,21.50
2018-03-18T04:10:46.407Z,20.30
2018-03-18T04:11:46.409Z,20.60
2018-03-18T04:12:46.410Z,20.00
2018-03-18T04:13:46.390Z,22.10
2018-03-18T04:14:46.398Z,20.10
2018-03-18T04:15:46.398Z,20.20
2018-03-18T04:16:46.369Z,20.50
2018-03-18T04:17:46.382Z,19.50
2018-03-18T04:18:46.359Z,19.20
2018-03-18T04:19:46.372Z,20.00
2018-03-18T04:20:46.348Z,19.50
2018-03-18T04:21:46.348Z,21.50
2018-03-18T04:22:46.342Z,19.40
2018-03-18T04:23:46.349Z,22.50
2018-03-18T04:24:46.339Z,19.00
2018-03-18T04:25:46.338Z,18.50
2018-03-18T04:26:46.315Z,19.30
2018-03-18T04:27:46.332Z,19.10
2018-03-18T04:28:46.307Z,18.50
2018-03-18T04:29:46.302Z,18.10
2018-03-18T04:30:46.315Z,19.00
2018-03-18T04:31:46.292Z,19.00
2018-03-18T04:32:46.304Z,18.00
2018-03-18T04:33:46.281Z,18.10
2018-03-18T04:34:46.293Z,18.10
2018-03-18T04:35:46.266Z,18.40
2018-03-18T04:36:46.282Z,17.70
2018-03-18T04:37:46.276Z,18.30
2018-03-18T04:38:46.272Z,17.90
2018-03-18T04:39:46.245Z,18.10
2018-03-18T04:40:46.241Z,18.50
2018-03-18T04:41:46.237Z,17.80
2018-03-18T04:42:46.231Z,18.20
2018-03-18T04:43:46.245Z,17.30
2018-03-18T04:44:46.257Z,17.70
2018-03-18T04:45:46.212Z,17.40
2018-03-18T04:46:46.210Z,17.50
2018-03-18T04:47:46.205Z,17.70
2018-03-18T04:48:46.194Z,17.50
2018-03-18T04:49:46.211Z,17.50
2018-03-18T04:50:46.202Z,18.90
2018-03-18T04:51:46.196Z,17.10
2018-03-18T04:52:46.194Z,18.00
2018-03-18T04:53:46.185Z,16.50
2018-03-18T04:54:46.193Z,18.10
2018-03-18T04:55:46.182Z,16.80
2018-03-18T04:56:46.173Z,16.80
2018-03-18T04:57:46.168Z,17.50
2018-03-18T04:58:46.162Z,17.40
2018-03-18T04:59:46.153Z,17.90
2018-03-18T05:00:46.151Z,17.70
2018-03-18T05:01:46.145Z,17.50
2018-03-18T05:02:46.136Z,17.10
2018-03-18T05:03:46.130Z,17.90
2018-03-18T05:04:46.129Z,17.00
2018-03-18T05:05:46.123Z,17.40
2018-03-18T05:06:46.114Z,17.00
2018-03-18T05:07:46.113Z,16.70
2018-03-18T05:08:46.106Z,17.30
2018-03-18T05:09:46.097Z,16.20
2018-03-18T05:10:46.096Z,18.00
2018-03-18T05:11:46.090Z,18.00
2018-03-18T05:12:46.089Z,17.10
2018-03-18T05:13:46.078Z,16.90
2018-03-18T05:14:46.070Z,17.30
2018-03-18T05:15:46.068Z,18.00
2018-03-18T05:16:46.065Z,18.80
2018-03-18T05:17:46.052Z,20.30
2018-03-18T05:18:46.047Z,20.70
2018-03-18T05:19:46.042Z,19.60
2018-03-18T05:20:46.039Z,19.80
2018-03-18T05:21:46.037Z,19.80
2018-03-18T05:22:46.024Z,19.10
2018-03-18T05:23:46.019Z,19.60
2018-03-18T05:24:46.018Z,18.00
2018-03-18T05:25:46.012Z,17.90
2018-03-18T05:26:46.002Z,18.70
2018-03-18T05:27:46.096Z,18.60
2018-03-18T05:28:45.994Z,16.80
2018-03-18T05:29:45.989Z,16.60
2018-03-18T05:30:45.987Z,17.50
2018-03-18T05:31:45.973Z,17.10
2018-03-18T05:32:45.967Z,16.30
2018-03-18T05:33:46.063Z,16.20
2018-03-18T05:34:45.961Z,15.90
2018-03-18T05:35:45.955Z,15.60
2018-03-18T05:36:45.945Z,17.00
2018-03-18T05:37:45.944Z,16.60
2018-03-18T05:38:45.938Z,15.60
2018-03-18T05:39:46.029Z,16.10
2018-03-18T05:40:45.922Z,15.40
2018-03-18T05:41:45.917Z,14.90
2018-03-18T05:42:45.916Z,15.40
2018-03-18T05:43:45.906Z,16.10
2018-03-18T05:44:45.903Z,14.90
2018-03-18T05:45:45.994Z,15.40
2018-03-18T05:46:45.894Z,15.50
2018-03-18T05:47:45.883Z,14.70
2018-03-18T05:48:45.877Z,15.00
2018-03-18T05:49:45.873Z,16.80
2018-03-18T05:50:45.866Z,14.10
2018-03-18T05:51:45.858Z,14.10
2018-03-18T05:52:45.852Z,15.00
2018-03-18T05:53:45.849Z,15.30
2018-03-18T05:54:45.847Z,14.60
2018-03-18T05:55:45.841Z,14.20
2018-03-18T05:56:45.831Z,14.60
2018-03-18T05:57:45.823Z,14.50
2018-03-18T05:58:45.818Z,15.00
2018-03-18T05:59:45.813Z,14.50
2018-03-18T06:00:45.806Z,15.30
2018-03-18T06:01:45.805Z,15.70
2018-03-18T06:02:45.799Z,15.70
2018-03-18T06:03:45.789Z,14.20
2018-03-18T06:04:45.787Z,15.50
2018-03-18T06:05:45.783Z,15.40
2018-03-18T06:06:45.779Z,15.30
2018-03-18T06:07:45.773Z,15.90
2018-03-18T06:08:45.764Z,15.50
2018-03-18T06:09:45.757Z,15.90
2018-03-18T06:10:45.751Z,15.40
2018-03-18T06:11:45.744Z,15.40
2018-03-18T06:12:45.741Z,15.90
2018-03-18T06:13:45.736Z,19.20
2018-03-18T06:14:45.728Z,16.20
2018-03-18T06:15:45.728Z,15.80
2018-03-18T06:16:45.717Z,16.10
2018-03-18T06:17:45.713Z,14.90
2018-03-18T06:18:45.708Z,16.10
2018-03-18T06:19:45.698Z,16.20
2018-03-18T06:20:45.694Z,15.40
2018-03-18T06:21:45.686Z,16.30
2018-03-18T06:22:45.680Z,15.50
2018-03-18T06:23:45.675Z,15.90
2018-03-18T06:24:45.690Z,17.20
2018-03-18T06:25:45.665Z,14.30
2018-03-18T06:26:45.658Z,16.20
2018-03-18T06:27:45.652Z,14.60
2018-03-18T06:28:45.646Z,16.00
2018-03-18T06:29:45.641Z,16.50
2018-03-18T06:30:45.634Z,15.90
2018-03-18T06:31:45.629Z,17.90
2018-03-18T06:32:45.622Z,16.70
2018-03-18T06:33:45.717Z,16.80
2018-03-18T06:34:45.611Z,15.90
2018-03-18T06:35:45.606Z,15.70
2018-03-18T06:36:45.600Z,15.90
2018-03-18T06:37:45.593Z,15.90
2018-03-18T06:38:45.588Z,15.50
2018-03-18T06:39:45.583Z,15.90
2018-03-18T06:40:45.576Z,16.60
2018-03-18T06:41:45.610Z,15.80
2018-03-18T06:42:45.560Z,15.70
2018-03-18T06:43:45.558Z,16.60
2018-03-18T06:44:45.553Z,16.70
2018-03-18T06:45:45.542Z,16.00
2018-03-18T06:46:45.543Z,16.10
2018-03-18T06:47:45.535Z,18.30
2018-03-18T06:48:45.530Z,16.50
2018-03-18T06:49:45.524Z,19.10
2018-03-18T06:50:45.513Z,16.80
2018-03-18T06:51:45.513Z,18.20
2018-03-18T06:52:45.492Z,16.90
2018-03-18T06:53:45.529Z,16.70
2018-03-18T06:54:45.475Z,16.30
2018-03-18T06:55:45.490Z,16.50
2018-03-18T06:56:45.479Z,17.00
2018-03-18T06:57:45.456Z,15.50
2018-03-18T06:58:45.457Z,17.30
2018-03-18T06:59:45.467Z,19.50
2018-03-18T07:00:45.461Z,19.80
2018-03-18T07:01:45.457Z,20.30
2018-03-18T07:02:45.434Z,19.30
2018-03-18T07:03:45.447Z,20.20
2018-03-18T07:04:45.421Z,18.90
2018-03-18T07:05:45.416Z,18.90
2018-03-18T07:06:45.411Z,20.10
2018-03-18T07:07:45.419Z,18.70
2018-03-18T07:08:45.400Z,17.90
2018-03-18T07:09:45.412Z,18.00
2018-03-18T07:10:45.412Z,17.80
2018-03-18T07:11:45.418Z,17.80
2018-03-18T07:12:45.370Z,18.30
2018-03-18T07:13:45.371Z,19.80
2018-03-18T07:14:45.378Z,19.00
2018-03-18T07:15:45.456Z,17.50
2018-03-18T07:16:45.372Z,17.90
2018-03-18T07:17:45.340Z,19.60
2018-03-18T07:18:45.338Z,20.30
2018-03-18T07:19:45.342Z,19.30
2018-03-18T07:20:45.326Z,18.80
2018-03-18T07:21:45.335Z,18.00
2018-03-18T07:22:45.318Z,18.90
2018-03-18T07:23:45.328Z,20.40
2018-03-18T07:24:45.323Z,20.00
2018-03-18T07:25:45.311Z,20.10
2018-03-18T07:26:45.311Z,20.50
2018-03-18T07:27:45.305Z,20.50
2018-03-18T07:28:45.296Z,21.30
2018-03-18T07:29:45.290Z,19.30
2018-03-18T07:30:45.277Z,19.50
2018-03-18T07:31:45.271Z,19.80
2018-03-18T07:32:45.270Z,19.90
2018-03-18T07:33:45.256Z,19.90
2018-03-18T07:34:45.262Z,18.50
2018-03-18T07:35:45.245Z,18.50
2018-03-18T07:36:45.237Z,17.40
2018-03-18T07:37:45.240Z,18.70
2018-03-18T07:38:45.270Z,18.50
2018-03-18T07:39:45.222Z,20.10
2018-03-18T07:40:45.223Z,18.70
2018-03-18T07:41:45.210Z,20.20
2018-03-18T07:42:45.213Z,20.10
2018-03-18T07:43:45.219Z,20.90
2018-03-18T07:44:45.189Z,19.50
2018-03-18T07:45:45.190Z,19.10
2018-03-18T07:46:45.188Z,19.40
2018-03-18T07:47:45.178Z,20.20
2018-03-18T07:48:45.176Z,18.60
2018-03-18T07:49:45.169Z,19.00
2018-03-18T07:50:45.158Z,19.10
2018-03-18T07:51:45.146Z,18.50
2018-03-18T07:52:45.147Z,18.40
2018-03-18T07:53:45.139Z,16.60
2018-03-18T07:54:45.133Z,17.60
2018-03-18T07:55:45.128Z,17.10
2018-03-18T07:56:45.105Z,18.00
2018-03-18T07:57:45.098Z,17.20
2018-03-18T07:58:45.092Z,17.50
2018-03-18T07:59:45.102Z,17.90
2018-03-18T08:00:45.079Z,18.40
2018-03-18T08:01:45.074Z,17.80
2018-03-18T08:02:45.083Z,17.50
2018-03-18T08:03:45.162Z,20.20
2018-03-18T08:04:45.055Z,16.80
2018-03-18T08:05:45.049Z,17.10
2018-03-18T08:06:45.043Z,17.30
2018-03-18T08:07:45.040Z,17.40
2018-03-18T08:08:45.030Z,17.50
2018-03-18T08:09:45.039Z,16.50
2018-03-18T08:10:45.028Z,17.10
2018-03-18T08:11:45.029Z,17.30
2018-03-18T08:12:45.005Z,17.20
2018-03-18T08:13:45.014Z,16.80
2018-03-18T08:14:45.002Z,17.60
2018-03-18T08:15:45.002Z,16.60
2018-03-18T08:16:44.979Z,16.90
2018-03-18T08:17:44.976Z,16.60
2018-03-18T08:18:44.978Z,16.60
2018-03-18T08:19:44.977Z,16.70
2018-03-18T08:20:44.957Z,17.50
2018-03-18T08:21:44.964Z,16.90
2018-03-18T08:22:44.963Z,16.90
2018-03-18T08:23:44.937Z,16.70
2018-03-18T08:24:44.945Z,16.20
2018-03-18T08:25:44.924Z,16.30
2018-03-18T08:26:44.937Z,16.90
2018-03-18T08:27:45.012Z,16.30
2018-03-18T08:28:44.924Z,16.90
2018-03-18T08:29:44.912Z,16.40
2018-03-18T08:30:44.912Z,16.70
2018-03-18T08:31:44.908Z,16.60
2018-03-18T08:32:44.899Z,17.20
2018-03-18T08:33:44.894Z,16.70
2018-03-18T08:34:44.885Z,17.80
2018-03-18T08:35:44.881Z,17.90
2018-03-18T08:36:44.872Z,18.90
2018-03-18T08:37:44.873Z,18.70
2018-03-18T08:38:44.861Z,19.40
2018-03-18T08:39:44.847Z,17.60
2018-03-18T08:40:44.840Z,18.60
2018-03-18T08:41:44.839Z,17.80
2018-03-18T08:42:44.839Z,18.20
2018-03-18T08:43:44.825Z,18.30
2018-03-18T08:44:44.821Z,16.90
2018-03-18T08:45:44.809Z,16.20
2018-03-18T08:46:44.822Z,17.10
2018-03-18T08:47:44.803Z,17.90
2018-03-18T08:48:44.799Z,17.90
2018-03-18T08:49:44.785Z,17.70
2018-03-18T08:50:44.778Z,15.80
2018-03-18T08:51:44.782Z,18.40
2018-03-18T08:52:44.773Z,17.20
2018-03-18T08:53:44.767Z,19.20
2018-03-18T08:54:44.753Z,17.00
2018-03-18T08:55:44.750Z,17.10
2018-03-18T08:56:44.752Z,16.90
2018-03-18T08:57:44.744Z,18.30
2018-03-18T08:58:44.736Z,17.20
2018-03-18T08:59:44.733Z,18.30
2018-03-18T09:00:44.726Z,19.70
2018-03-18T09:01:44.720Z,19.00
2018-03-18T09:02:44.714Z,19.80
2018-03-18T09:03:44.708Z,18.10
2018-03-18T09:04:44.701Z,17.70
2018-03-18T09:05:44.691Z,20.10
2018-03-18T09:06:44.688Z,17.80
2018-03-18T09:07:44.687Z,18.40
2018-03-18T09:08:44.672Z,18.40
2018-03-18T09:09:44.669Z,18.10
2018-03-18T09:10:44.664Z,19.10
2018-03-18T09:11:44.661Z,18.00
2018-03-18T09:12:44.651Z,18.80
2018-03-18T09:13:44.640Z,18.50
2018-03-18T09:14:44.639Z,19.90
2018-03-18T09:15:44.633Z,17.70
2018-03-18T09:16:44.627Z,18.70
2018-03-18T09:17:44.635Z,20.50
2018-03-18T09:18:44.609Z,18.50
2018-03-18T09:19:44.608Z,18.40
2018-03-18T09:20:44.601Z,17.70
2018-03-18T09:21:44.595Z,18.80
2018-03-18T09:22:44.590Z,18.70
2018-03-18T09:23:44.582Z,20.00
2018-03-18T09:24:44.575Z,20.20
2018-03-18T09:25:44.565Z,18.30
2018-03-18T09:26:44.564Z,19.60
2018-03-18T09:27:44.657Z,19.60
2018-03-18T09:28:44.552Z,21.20
2018-03-18T09:29:44.545Z,20.50
2018-03-18T09:30:44.533Z,19.10
2018-03-18T09:31:44.532Z,19.40
2018-03-18T09:32:44.521Z,20.30
2018-03-18T09:33:44.618Z,20.10
2018-03-18T09:34:44.509Z,21.30
2018-03-18T09:35:44.506Z,19.90
2018-03-18T09:36:44.501Z,20.50
2018-03-18T09:37:44.493Z,21.40
2018-03-18T09:38:44.485Z,22.30
2018-03-18T09:39:44.481Z,21.80
2018-03-18T09:40:44.478Z,21.80
2018-03-18T09:41:44.472Z,21.30
2018-03-18T09:42:44.576Z,21.80
2018-03-18T09:43:44.459Z,20.60
2018-03-18T09:44:44.453Z,22.00
2018-03-18T09:45:44.430Z,23.20
2018-03-18T09:46:44.420Z,21.60
2018-03-18T09:47:44.436Z,20.70
2018-03-18T09:48:44.428Z,20.10
2018-03-18T09:49:44.422Z,20.00
2018-03-18T09:50:44.399Z,23.10
2018-03-18T09:51:44.392Z,21.10
2018-03-18T09:52:44.399Z,21.00
2018-03-18T09:53:44.379Z,20.40
2018-03-18T09:54:44.370Z,21.10
2018-03-18T09:55:44.364Z,22.00
2018-03-18T09:56:44.364Z,22.70
2018-03-18T09:57:44.373Z,22.40
2018-03-18T09:58:44.349Z,22.50
2018-03-18T09:59:44.362Z,23.80
2018-03-18T10:00:44.336Z,22.70
2018-03-18T10:01:44.349Z,23.50
2018-03-18T10:02:44.343Z,24.10
2018-03-18T10:03:44.319Z,24.20
2018-03-18T10:04:44.331Z,24.70
2018-03-18T10:05:44.322Z,24.60
2018-03-18T10:06:44.322Z,24.40
2018-03-18T10:07:44.291Z,27.40
2018-03-18T10:08:44.289Z,25.40
2018-03-18T10:09:44.282Z,26.30
2018-03-18T10:10:44.292Z,27.30
2018-03-18T10:11:44.283Z,27.70
2018-03-18T10:12:44.280Z,27.10
2018-03-18T10:13:44.259Z,26.70
2018-03-18T10:14:44.269Z,27.10
2018-03-18T10:15:44.419Z,24.80
2018-03-18T10:16:44.256Z,28.10
2018-03-18T10:17:44.254Z,24.70
2018-03-18T10:18:44.245Z,24.20
2018-03-18T10:19:44.239Z,23.00
2018-03-18T10:20:44.232Z,24.40
2018-03-18T10:21:44.227Z,20.90
2018-03-18T10:22:44.221Z,22.10
2018-03-18T10:23:44.216Z,21.70
2018-03-18T10:24:44.209Z,20.00
2018-03-18T10:25:44.199Z,20.90
2018-03-18T10:26:44.188Z,21.20
2018-03-18T10:27:44.192Z,21.30
2018-03-18T10:28:44.181Z,20.90
2018-03-18T10:29:44.175Z,20.10
2018-03-18T10:30:44.174Z,22.10
2018-03-18T10:31:44.168Z,19.30
2018-03-18T10:32:44.152Z,19.80
2018-03-18T10:33:44.164Z,19.60
2018-03-18T10:34:44.146Z,18.80
2018-03-18T10:35:44.144Z,19.60
2018-03-18T10:36:44.128Z,23.70
2018-03-18T10:37:44.129Z,19.90
2018-03-18T10:38:44.127Z,18.30
2018-03-18T10:39:44.121Z,19.20
2018-03-18T10:40:44.115Z,19.20
2018-03-18T10:41:44.106Z,35.50
2018-03-18T10:42:44.094Z,30.00
2018-03-18T10:43:44.099Z,19.90
2018-03-18T10:44:44.082Z,22.30
2018-03-18T10:45:44.084Z,20.30
2018-03-18T10:46:44.077Z,16.40
2018-03-18T10:47:44.071Z,16.40
2018-03-18T10:48:44.098Z,15.40
2018-03-18T10:49:44.063Z,16.00
2018-03-18T10:50:44.048Z,16.00
2018-03-18T10:51:44.053Z,15.80
2018-03-18T10:52:44.043Z,16.90
2018-03-18T10:53:44.032Z,16.70
2018-03-18T10:54:44.032Z,16.90
2018-03-18T10:55:44.031Z,16.10
2018-03-18T10:56:44.015Z,15.30
2018-03-18T10:57:44.110Z,16.00
2018-03-18T10:58:44.010Z,15.80
2018-03-18T10:59:44.033Z,14.90
2018-03-18T11:00:43.993Z,15.20
2018-03-18T11:01:43.988Z,15.00
2018-03-18T11:02:43.983Z,14.00
2018-03-18T11:03:43.978Z,14.50
2018-03-18T11:04:43.981Z,15.40
2018-03-18T11:05:43.976Z,13.80
2018-03-18T11:06:43.962Z,14.10
2018-03-18T11:07:43.962Z,14.20
2018-03-18T11:08:43.951Z,14.60
2018-03-18T11:09:43.946Z,14.10
2018-03-18T11:10:43.941Z,15.00
2018-03-18T11:11:43.937Z,14.60
2018-03-18T11:12:43.936Z,13.80
2018-03-18T11:13:43.935Z,12.90
2018-03-18T11:14:43.927Z,12.40
2018-03-18T11:15:43.930Z,13.70
2018-03-18T11:16:43.925Z,14.20
2018-03-18T11:17:43.906Z,13.80
2018-03-18T11:18:43.929Z,12.80
2018-03-18T11:19:43.903Z,13.40
2018-03-18T11:20:43.892Z,13.80
2018-03-18T11:21:43.887Z,15.60
2018-03-18T11:22:43.882Z,16.20
2018-03-18T11:23:43.883Z,16.30
2018-03-18T11:24:43.877Z,16.90
2018-03-18T11:25:43.876Z,17.10
2018-03-18T11:26:43.862Z,18.80
2018-03-18T11:27:43.867Z,18.90
2018-03-18T11:28:43.858Z,19.40
2018-03-18T11:29:43.857Z,18.90
2018-03-18T11:30:43.852Z,19.00
2018-03-18T11:31:43.859Z,20.00
2018-03-18T11:32:43.836Z,20.70
2018-03-18T11:33:43.836Z,19.90
2018-03-18T11:34:43.827Z,19.70
2018-03-18T11:35:43.859Z,20.00
2018-03-18T11:36:43.813Z,19.60
2018-03-18T11:37:43.817Z,19.30
2018-03-18T11:38:43.814Z,19.40
2018-03-18T11:39:43.801Z,19.10
2018-03-18T11:40:43.798Z,20.90
2018-03-18T11:41:43.794Z,20.80
2018-03-18T11:42:43.775Z,22.20
2018-03-18T11:43:43.786Z,20.50
2018-03-18T11:44:43.763Z,22.30
2018-03-18T11:45:43.774Z,20.20
2018-03-18T11:46:43.750Z,20.90
2018-03-18T11:47:43.761Z,21.70
2018-03-18T11:48:43.739Z,21.80
2018-03-18T11:49:43.739Z,22.40
2018-03-18T11:50:43.734Z,21.30
2018-03-18T11:51:43.731Z,20.70
2018-03-18T11:52:43.738Z,20.30
2018-03-18T11:53:43.734Z,19.20
2018-03-18T11:54:43.729Z,22.20
2018-03-18T11:55:43.724Z,20.70
2018-03-18T11:56:43.693Z,21.80
2018-03-18T11:57:43.710Z,19.20
2018-03-18T11:58:43.705Z,19.80
2018-03-18T11:59:43.686Z,20.60
2018-03-18T12:00:43.699Z,18.70
2018-03-18T12:01:43.691Z,19.80
2018-03-18T12:02:43.675Z,21.70
2018-03-18T12:03:43.682Z,21.70
2018-03-18T12:04:43.677Z,20.30
2018-03-18T12:05:43.659Z,18.90
2018-03-18T12:06:43.655Z,19.80
2018-03-18T12:07:43.667Z,21.80
2018-03-18T12:08:43.658Z,21.60
2018-03-18T12:09:43.657Z,21.00
2018-03-18T12:10:43.645Z,21.10
2018-03-18T12:11:43.654Z,21.10
2018-03-18T12:12:43.643Z,21.30
2018-03-18T12:13:43.630Z,21.10
2018-03-18T12:14:43.631Z,20.40
2018-03-18T12:15:43.611Z,22.40
2018-03-18T12:16:43.621Z,22.20
2018-03-18T12:17:43.604Z,20.80
2018-03-18T12:18:43.612Z,20.30
2018-03-18T12:19:43.608Z,21.10
2018-03-18T12:20:43.582Z,22.60
2018-03-18T12:21:43.585Z,23.80
2018-03-18T12:22:43.589Z,23.30
2018-03-18T12:23:43.574Z,23.40
2018-03-18T12:24:43.568Z,20.80
2018-03-18T12:25:43.580Z,21.60
2018-03-18T12:26:43.571Z,22.20
2018-03-18T12:27:43.576Z,21.60
2018-03-18T12:28:43.570Z,20.70
2018-03-18T12:29:43.550Z,21.70
2018-03-18T12:30:43.558Z,20.60
2018-03-18T12:31:43.558Z,20.90
2018-03-18T12:32:43.538Z,18.90
2018-03-18T12:33:43.533Z,18.80
2018-03-18T12:34:43.541Z,19.70
2018-03-18T12:35:43.542Z,17.80
2018-03-18T12:36:43.517Z,18.30
2018-03-18T12:37:43.529Z,17.60
2018-03-18T12:38:43.510Z,18.70
2018-03-18T12:39:43.522Z,16.70
2018-03-18T12:40:43.502Z,15.60
2018-03-18T12:41:43.498Z,15.10
2018-03-18T12:42:43.511Z,15.10
2018-03-18T12:43:43.501Z,14.30
2018-03-18T12:44:43.491Z,14.20
2018-03-18T12:45:43.490Z,13.20
2018-03-18T12:46:43.501Z,14.40
2018-03-18T12:47:43.483Z,14.30
2018-03-18T12:48:43.490Z,12.20
2018-03-18T12:49:43.471Z,12.40
2018-03-18T12:50:43.471Z,14.00
2018-03-18T12:51:43.469Z,13.50
2018-03-18T12:52:43.476Z,11.40
2018-03-18T12:53:43.458Z,12.70
2018-03-18T12:54:43.486Z,13.60